createdAt,value
2023-03-06T00:00:17.615Z,84.82
2023-03-06T00:02:45.707Z,84.79
2023-03-06T00:05:14.205Z,85.12
2023-03-06T00:07:42.049Z,85.05
2023-03-06T00:10:14.220Z,85.07
2023-03-06T00:12:43.685Z,84.84
2023-03-06T00:15:12.519Z,84.97
2023-03-06T00:17:40.954Z,85.20
2023-03-06T00:20:10.924Z,85.16
2023-03-06T00:22:38.823Z,85.32
2023-03-06T00:25:08.115Z,85.24
2023-03-06T00:27:35.919Z,85.18
2023-03-06T00:30:06.169Z,85.38
2023-03-06T00:32:35.297Z,85.28
2023-03-06T00:35:03.668Z,85.83
2023-03-06T00:37:31.439Z,86.74
2023-03-06T00:39:59.268Z,87.50
2023-03-06T00:42:27.028Z,87.98
2023-03-06T00:44:54.992Z,88.59
2023-03-06T00:47:24.864Z,89.32
2023-03-06T00:49:53.057Z,90.32
2023-03-06T00:52:20.983Z,91.13
2023-03-06T00:54:48.749Z,91.79
2023-03-06T00:57:16.586Z,92.45
2023-03-06T00:59:44.342Z,92.69
2023-03-06T01:02:12.153Z,93.00
2023-03-06T01:04:41.351Z,93.25
2023-03-06T01:07:09.175Z,93.32
2023-03-06T01:09:36.946Z,93.70
2023-03-06T01:12:05.076Z,93.67
2023-03-06T01:14:32.838Z,93.83
2023-03-06T01:17:00.614Z,94.07
2023-03-06T01:19:28.461Z,94.17
2023-03-06T01:21:57.615Z,94.47
2023-03-06T01:24:26.016Z,94.49
2023-03-06T01:26:57.536Z,94.30
2023-03-06T01:29:26.358Z,94.21
2023-03-06T01:31:54.244Z,94.55
2023-03-06T01:34:22.089Z,94.71
2023-03-06T01:36:49.971Z,94.91
2023-03-06T01:39:19.119Z,95.26
2023-03-06T01:41:47.467Z,95.36
2023-03-06T01:44:15.275Z,95.79
2023-03-06T01:46:44.041Z,96.01
2023-03-06T01:49:19.681Z,96.20
2023-03-06T01:51:53.489Z,96.45
2023-03-06T01:54:26.432Z,96.67
2023-03-06T01:56:57.647Z,96.91
2023-03-06T01:59:26.915Z,97.07
2023-03-06T02:01:55.876Z,97.17
2023-03-06T02:04:24.791Z,97.56
2023-03-06T02:06:53.005Z,97.60
2023-03-06T02:09:20.923Z,97.72
2023-03-06T02:11:50.077Z,97.78
2023-03-06T02:14:19.021Z,98.10
2023-03-06T02:16:46.973Z,98.35
2023-03-06T02:19:29.947Z,98.46
2023-03-06T02:21:57.908Z,98.64
2023-03-06T02:24:36.508Z,98.82
2023-03-06T02:27:08.058Z,98.82
2023-03-06T02:29:36.405Z,99.13
2023-03-06T02:32:05.212Z,99.30
2023-03-06T02:34:56.942Z,99.59
2023-03-06T02:37:26.427Z,99.74
2023-03-06T02:40:03.487Z,99.72
2023-03-06T02:42:32.788Z,99.86
2023-03-06T02:45:03.305Z,99.89
2023-03-06T02:47:31.748Z,100.00
2023-03-06T02:50:00.130Z,100.00
2023-03-06T02:52:27.953Z,100.00
2023-03-06T02:54:56.783Z,100.00
2023-03-06T02:57:24.985Z,100.00
2023-03-06T02:59:54.979Z,100.00
2023-03-06T03:02:22.798Z,100.00
2023-03-06T03:04:50.683Z,100.00
2023-03-06T03:07:18.949Z,100.00
2023-03-06T03:09:46.917Z,100.00
2023-03-06T03:12:14.849Z,100.00
2023-03-06T03:14:42.644Z,100.00
2023-03-06T03:17:11.855Z,100.00
2023-03-06T03:19:39.690Z,100.00
2023-03-06T03:22:07.937Z,100.00
2023-03-06T03:24:35.796Z,100.00
2023-03-06T03:27:04.012Z,100.00
2023-03-06T03:29:32.621Z,100.00
2023-03-06T03:32:00.643Z,100.00
2023-03-06T03:34:29.974Z,100.00
2023-03-06T03:36:58.470Z,100.00
2023-03-06T03:39:26.532Z,100.00
2023-03-06T03:41:54.322Z,100.00
2023-03-06T03:44:22.417Z,100.00
2023-03-06T03:46:50.241Z,100.00
2023-03-06T03:49:21.976Z,100.00
2023-03-06T03:51:52.672Z,100.00
2023-03-06T03:54:21.918Z,100.00
2023-03-06T03:56:51.324Z,100.00
2023-03-06T03:59:24.950Z,100.00
2023-03-06T04:02:04.707Z,100.00
2023-03-06T04:04:36.763Z,100.00
2023-03-06T04:07:06.270Z,100.00
2023-03-06T04:09:34.178Z,100.00
2023-03-06T04:12:02.329Z,100.00
2023-03-06T04:14:31.213Z,100.00
2023-03-06T04:16:59.143Z,100.00
2023-03-06T04:19:27.207Z,100.00
2023-03-06T04:21:55.044Z,100.00
2023-03-06T04:24:24.383Z,100.00
2023-03-06T04:26:53.004Z,100.00
2023-03-06T04:29:20.832Z,100.00
2023-03-06T04:31:48.708Z,100.00
2023-03-06T04:34:16.602Z,100.00
2023-03-06T04:36:46.083Z,100.00
2023-03-06T04:39:16.622Z,100.00
2023-03-06T04:41:45.930Z,100.00
2023-03-06T04:44:13.861Z,100.00
2023-03-06T04:46:41.629Z,100.00
2023-03-06T04:49:09.500Z,100.00
2023-03-06T04:51:37.738Z,100.00
2023-03-06T04:54:05.900Z,100.00
2023-03-06T04:56:34.547Z,100.00
2023-03-06T04:59:05.027Z,100.00
2023-03-06T05:01:32.850Z,100.00
2023-03-06T05:04:00.667Z,100.00
2023-03-06T05:06:28.480Z,100.00
2023-03-06T05:08:56.367Z,100.00
2023-03-06T05:11:24.140Z,100.00
2023-03-06T05:13:52.294Z,100.00
2023-03-06T05:16:21.509Z,100.00
2023-03-06T05:18:50.743Z,100.00
2023-03-06T05:21:18.589Z,100.00
2023-03-06T05:23:47.579Z,100.00
2023-03-06T05:26:16.214Z,100.00
2023-03-06T05:28:44.011Z,100.00
2023-03-06T05:31:11.921Z,100.00
2023-03-06T05:33:41.095Z,100.00
2023-03-06T05:36:10.319Z,100.00
2023-03-06T05:38:38.110Z,100.00
2023-03-06T05:41:06.208Z,100.00
2023-03-06T05:43:34.027Z,100.00
2023-03-06T05:46:03.467Z,100.00
2023-03-06T05:48:31.636Z,100.00
2023-03-06T05:51:02.661Z,100.00
2023-03-06T05:53:31.334Z,100.00
2023-03-06T05:56:00.200Z,100.00
2023-03-06T05:58:28.929Z,100.00
2023-03-06T06:00:56.892Z,100.00
2023-03-06T06:03:25.053Z,100.00
2023-03-06T06:05:53.512Z,100.00
2023-03-06T06:08:22.864Z,100.00
2023-03-06T06:10:53.322Z,100.00
2023-03-06T06:13:21.330Z,100.00
2023-03-06T06:15:49.136Z,100.00
2023-03-06T06:18:16.985Z,100.00
2023-03-06T06:20:44.780Z,100.00
2023-03-06T06:23:12.816Z,100.00
2023-03-06T06:25:42.242Z,100.00
2023-03-06T06:28:10.066Z,100.00
2023-03-06T06:30:38.343Z,100.00
2023-03-06T06:33:06.181Z,100.00
2023-03-06T06:35:37.228Z,100.00
2023-03-06T06:38:05.174Z,100.00
2023-03-06T06:40:32.982Z,100.00
2023-03-06T06:43:02.139Z,100.00
2023-03-06T06:45:29.964Z,100.00
2023-03-06T06:47:58.039Z,100.00
2023-03-06T06:50:25.981Z,100.00
2023-03-06T06:52:53.715Z,100.00
2023-03-06T06:55:21.552Z,100.00
2023-03-06T06:57:49.315Z,100.00
2023-03-06T07:00:20.315Z,100.00
2023-03-06T07:02:49.194Z,100.00
2023-03-06T07:05:17.216Z,100.00
2023-03-06T07:07:45.058Z,100.00
2023-03-06T07:10:15.708Z,100.00
2023-03-06T07:12:43.790Z,100.00
2023-03-06T07:15:13.666Z,100.00
2023-03-06T07:17:42.793Z,100.00
2023-03-06T07:20:12.647Z,100.00
2023-03-06T07:22:50.409Z,100.00
2023-03-06T07:25:19.732Z,100.00
2023-03-06T07:27:53.299Z,100.00
2023-03-06T07:30:22.370Z,100.00
2023-03-06T07:32:53.931Z,100.00
2023-03-06T07:35:22.044Z,100.00
2023-03-06T07:37:49.953Z,100.00
2023-03-06T07:40:19.584Z,99.98
2023-03-06T07:42:47.794Z,99.41
2023-03-06T07:45:19.582Z,98.63
2023-03-06T07:47:55.336Z,97.04
2023-03-06T07:50:23.237Z,96.06
2023-03-06T07:52:51.603Z,95.22
2023-03-06T07:55:19.787Z,94.08
2023-03-06T07:57:47.623Z,92.53
2023-03-06T08:00:16.901Z,91.62
2023-03-06T08:02:44.882Z,91.57
2023-03-06T08:05:16.520Z,90.07
2023-03-06T08:07:45.041Z,88.97
2023-03-06T08:10:15.350Z,86.84
2023-03-06T08:12:43.278Z,84.06
2023-03-06T08:15:12.498Z,82.29
2023-03-06T08:17:40.653Z,81.74
2023-03-06T08:20:11.443Z,81.30
2023-03-06T08:22:40.773Z,80.80
2023-03-06T08:25:09.411Z,80.40
2023-03-06T08:27:37.332Z,80.49
2023-03-06T08:30:05.668Z,80.55
2023-03-06T08:32:36.198Z,79.83
2023-03-06T08:35:04.400Z,79.62
2023-03-06T08:37:32.257Z,79.63
2023-03-06T08:40:02.633Z,78.59
2023-03-06T08:42:30.466Z,78.24
2023-03-06T08:44:58.263Z,76.82
2023-03-06T08:47:26.129Z,76.21
2023-03-06T08:49:53.922Z,75.32
2023-03-06T08:52:21.697Z,74.38
2023-03-06T08:54:49.462Z,73.18
2023-03-06T08:57:18.709Z,72.96
2023-03-06T08:59:46.535Z,72.12
2023-03-06T09:02:15.265Z,70.50
2023-03-06T09:04:43.156Z,70.31
2023-03-06T09:07:10.903Z,69.90
2023-03-06T09:09:38.669Z,69.15
2023-03-06T09:12:06.751Z,68.45
2023-03-06T09:14:35.897Z,65.81
2023-03-06T09:17:03.703Z,65.68
2023-03-06T09:19:31.482Z,65.54
2023-03-06T09:22:00.976Z,64.87
2023-03-06T09:24:29.031Z,63.87
2023-03-06T09:26:56.888Z,62.85
2023-03-06T09:29:24.667Z,62.82
2023-03-06T09:31:53.768Z,63.03
2023-03-06T09:34:21.699Z,63.25
2023-03-06T09:36:56.401Z,62.38
2023-03-06T09:39:25.820Z,60.81
2023-03-06T09:41:54.926Z,60.81
2023-03-06T09:44:25.987Z,58.83
2023-03-06T09:47:11.629Z,61.27
2023-03-06T09:49:50.947Z,59.56
2023-03-06T09:52:32.412Z,59.08
2023-03-06T09:55:03.391Z,57.43
2023-03-06T09:57:32.823Z,58.83
2023-03-06T10:00:04.657Z,57.30
2023-03-06T10:02:38.321Z,54.87
2023-03-06T10:05:13.391Z,56.24
2023-03-06T10:07:47.964Z,53.61
2023-03-06T10:10:21.776Z,52.49
2023-03-06T10:12:58.614Z,52.63
2023-03-06T10:15:30.836Z,51.64
2023-03-06T10:17:58.722Z,53.23
2023-03-06T10:20:29.673Z,50.83
2023-03-06T10:23:13.246Z,48.52
2023-03-06T10:25:50.820Z,48.70
2023-03-06T10:28:22.181Z,50.13
2023-03-06T10:30:55.247Z,49.46
2023-03-06T10:33:29.101Z,49.54
2023-03-06T10:35:58.532Z,49.95
2023-03-06T10:38:28.429Z,49.57
2023-03-06T10:41:08.828Z,48.49
2023-03-06T10:43:37.709Z,46.52
2023-03-06T10:46:06.918Z,47.01
2023-03-06T10:48:37.051Z,47.27
2023-03-06T10:51:19.079Z,46.74
2023-03-06T10:53:52.921Z,47.19
2023-03-06T10:56:32.405Z,47.36
2023-03-06T10:59:07.721Z,47.59
2023-03-06T11:01:36.870Z,46.96
2023-03-06T11:04:17.973Z,46.99
2023-03-06T11:06:47.170Z,46.60
2023-03-06T11:09:17.586Z,46.96
2023-03-06T11:11:45.439Z,46.72
2023-03-06T11:14:16.418Z,46.67
2023-03-06T11:16:52.717Z,46.31
2023-03-06T11:19:24.552Z,46.64
2023-03-06T11:22:05.031Z,44.89
2023-03-06T11:24:39.020Z,43.73
2023-03-06T11:27:23.633Z,44.28
2023-03-06T11:29:55.279Z,45.29
2023-03-06T11:32:28.806Z,45.71
2023-03-06T11:35:02.285Z,45.77
2023-03-06T11:37:43.631Z,45.45
2023-03-06T11:40:18.576Z,46.20
2023-03-06T11:42:52.636Z,46.82
2023-03-06T11:45:26.260Z,47.31
2023-03-06T11:48:02.806Z,47.91
2023-03-06T11:50:35.671Z,48.72
2023-03-06T11:53:07.354Z,49.41
2023-03-06T11:55:45.653Z,48.69
2023-03-06T11:58:33.683Z,48.52
2023-03-06T12:01:07.291Z,48.35
2023-03-06T12:03:57.611Z,48.32
2023-03-06T12:06:36.312Z,49.05
2023-03-06T12:09:24.223Z,49.65
2023-03-06T12:12:08.070Z,50.11
2023-03-06T12:14:51.862Z,50.64
2023-03-06T12:17:27.526Z,51.12
2023-03-06T12:20:23.150Z,52.23
2023-03-06T12:22:58.251Z,53.16
2023-03-06T12:25:44.992Z,53.08
2023-03-06T12:28:29.061Z,53.61
2023-03-06T12:31:16.019Z,54.66
2023-03-06T12:33:53.415Z,54.44
2023-03-06T12:36:39.808Z,54.94
2023-03-06T12:39:15.808Z,54.21
2023-03-06T12:42:17.869Z,55.79
2023-03-06T12:45:05.889Z,55.58
2023-03-06T12:47:40.555Z,55.15
2023-03-06T12:50:19.111Z,55.73
2023-03-06T12:52:49.183Z,56.04
2023-03-06T12:55:22.767Z,56.27
2023-03-06T12:57:54.088Z,57.32
2023-03-06T13:01:04.888Z,58.48
2023-03-06T13:03:49.290Z,60.40
2023-03-06T13:06:39.056Z,60.51
2023-03-06T13:09:19.971Z,61.13
2023-03-06T13:12:24.687Z,60.66
2023-03-06T13:15:01.910Z,61.16
2023-03-06T13:17:38.476Z,60.93
2023-03-06T13:20:30.413Z,60.94
2023-03-06T13:22:58.739Z,61.18
2023-03-06T13:25:47.849Z,61.33
2023-03-06T13:28:27.829Z,61.38
2023-03-06T13:30:57.108Z,62.14
2023-03-06T13:33:54.509Z,62.55
2023-03-06T13:36:30.803Z,62.51
2023-03-06T13:39:03.414Z,62.00
2023-03-06T13:41:43.692Z,62.24
2023-03-06T13:44:48.744Z,63.15
2023-03-06T13:47:32.178Z,63.65
2023-03-06T13:50:01.215Z,62.71
2023-03-06T13:52:40.850Z,64.05
2023-03-06T13:55:23.930Z,64.60
2023-03-06T13:57:57.898Z,65.19
2023-03-06T14:00:58.715Z,66.02
2023-03-06T14:03:54.301Z,66.66
2023-03-06T14:07:01.278Z,66.52
2023-03-06T14:09:30.871Z,66.77
2023-03-06T14:12:03.486Z,66.89
2023-03-06T14:14:40.259Z,66.32
2023-03-06T14:17:16.084Z,66.64
2023-03-06T14:19:45.256Z,66.31
2023-03-06T14:22:19.112Z,65.85
2023-03-06T14:24:56.500Z,65.25
2023-03-06T14:27:39.424Z,65.56
2023-03-06T14:30:09.802Z,65.52
2023-03-06T14:32:39.711Z,66.97
2023-03-06T14:35:24.690Z,68.76
2023-03-06T14:37:54.635Z,71.27
2023-03-06T14:40:28.480Z,72.00
2023-03-06T14:43:20.127Z,71.80
2023-03-06T14:45:58.604Z,72.72
2023-03-06T14:48:38.412Z,72.48
2023-03-06T14:51:12.808Z,69.17
2023-03-06T14:53:40.747Z,68.73
2023-03-06T14:56:08.856Z,73.13
2023-03-06T14:58:41.980Z,77.22
2023-03-06T15:01:13.099Z,78.90
2023-03-06T15:03:45.199Z,76.28
2023-03-06T15:06:18.886Z,75.34
2023-03-06T15:08:49.372Z,74.58
2023-03-06T15:11:17.159Z,74.92
2023-03-06T15:14:01.610Z,72.48
2023-03-06T15:16:30.666Z,71.83
2023-03-06T15:19:00.507Z,71.32
2023-03-06T15:21:35.020Z,69.98
2023-03-06T15:24:03.078Z,69.63
2023-03-06T15:26:33.310Z,69.88
2023-03-06T15:29:18.942Z,70.16
2023-03-06T15:31:47.325Z,69.92
2023-03-06T15:34:18.623Z,68.93
2023-03-06T15:36:48.481Z,68.20
2023-03-06T15:39:38.931Z,67.55
2023-03-06T15:42:19.105Z,67.04
2023-03-06T15:44:51.528Z,66.12
2023-03-06T15:47:19.854Z,65.75
2023-03-06T15:49:51.773Z,64.53
2023-03-06T15:52:21.764Z,65.37
2023-03-06T15:54:49.885Z,64.85
2023-03-06T15:57:22.731Z,65.60
2023-03-06T15:59:51.405Z,66.11
2023-03-06T16:02:20.654Z,66.87
2023-03-06T16:04:49.358Z,67.55
2023-03-06T16:07:17.527Z,68.31
2023-03-06T16:09:47.419Z,68.84
2023-03-06T16:12:17.670Z,70.48
2023-03-06T16:14:45.732Z,72.70
2023-03-06T16:17:13.814Z,75.49
2023-03-06T16:19:42.052Z,78.56
2023-03-06T16:22:09.856Z,81.09
2023-03-06T16:24:37.723Z,83.02
2023-03-06T16:27:07.245Z,84.15
2023-03-06T16:29:35.185Z,85.21
2023-03-06T16:32:04.507Z,87.40
2023-03-06T16:34:32.305Z,88.81
2023-03-06T16:37:00.109Z,89.97
2023-03-06T16:39:27.880Z,90.71
2023-03-06T16:41:56.352Z,92.05
2023-03-06T16:44:25.536Z,92.33
2023-03-06T16:46:53.339Z,92.73
2023-03-06T16:49:23.869Z,92.85
2023-03-06T16:51:52.691Z,93.48
2023-03-06T16:54:21.808Z,93.49
2023-03-06T16:56:49.828Z,94.34
2023-03-06T16:59:17.630Z,95.12
2023-03-06T17:01:46.858Z,95.48
2023-03-06T17:04:14.714Z,95.74
2023-03-06T17:06:43.161Z,96.02
2023-03-06T17:09:11.404Z,96.42
2023-03-06T17:11:39.513Z,96.68
2023-03-06T17:14:07.710Z,96.92
2023-03-06T17:16:37.058Z,97.27
2023-03-06T17:19:06.242Z,97.29
2023-03-06T17:21:35.372Z,97.43
2023-03-06T17:24:03.851Z,97.26
2023-03-06T17:26:31.906Z,97.39
2023-03-06T17:28:59.876Z,97.29
2023-03-06T17:31:29.307Z,97.42
2023-03-06T17:34:00.444Z,97.77
2023-03-06T17:36:30.659Z,97.72
2023-03-06T17:38:59.999Z,98.12
2023-03-06T17:41:28.405Z,98.11
2023-03-06T17:43:58.146Z,97.69
2023-03-06T17:46:26.234Z,97.51
2023-03-06T17:48:54.393Z,97.06
2023-03-06T17:51:22.200Z,96.40
2023-03-06T17:53:52.218Z,95.89
2023-03-06T17:56:20.368Z,94.77
2023-03-06T17:58:48.293Z,93.19
2023-03-06T18:01:18.646Z,93.13
2023-03-06T18:03:48.190Z,93.09
2023-03-06T18:06:17.075Z,92.54
2023-03-06T18:08:45.800Z,92.45
2023-03-06T18:11:15.279Z,92.60
2023-03-06T18:13:44.591Z,92.47
2023-03-06T18:16:14.212Z,92.80
2023-03-06T18:18:42.340Z,93.16
2023-03-06T18:21:12.075Z,93.92
2023-03-06T18:23:41.533Z,94.26
2023-03-06T18:26:12.442Z,94.69
2023-03-06T18:28:44.429Z,95.10
2023-03-06T18:31:16.977Z,96.42
2023-03-06T18:33:45.088Z,97.51
2023-03-06T18:36:12.901Z,98.36
2023-03-06T18:38:43.954Z,99.19
2023-03-06T18:41:12.136Z,99.52
2023-03-06T18:43:41.309Z,99.58
2023-03-06T18:46:09.513Z,100.00
2023-03-06T18:48:37.547Z,100.00
2023-03-06T18:51:06.342Z,100.00
2023-03-06T18:53:34.246Z,100.00
2023-03-06T18:56:02.087Z,100.00
2023-03-06T18:58:30.648Z,100.00
2023-03-06T19:01:02.140Z,100.00
2023-03-06T19:03:30.050Z,100.00
2023-03-06T19:05:59.120Z,100.00
2023-03-06T19:08:26.934Z,100.00
2023-03-06T19:10:54.733Z,100.00
2023-03-06T19:13:22.464Z,100.00
2023-03-06T19:15:50.354Z,100.00
2023-03-06T19:18:19.534Z,100.00
2023-03-06T19:20:47.349Z,100.00
2023-03-06T19:23:15.135Z,100.00
2023-03-06T19:25:43.054Z,100.00
2023-03-06T19:28:10.863Z,100.00
2023-03-06T19:30:41.143Z,100.00
2023-03-06T19:33:08.942Z,100.00
2023-03-06T19:35:38.165Z,100.00
2023-03-06T19:38:06.172Z,100.00
2023-03-06T19:40:34.355Z,100.00
2023-03-06T19:43:02.358Z,100.00
2023-03-06T19:45:30.256Z,100.00
2023-03-06T19:48:00.840Z,100.00
2023-03-06T19:50:29.729Z,100.00
2023-03-06T19:52:59.096Z,100.00
2023-03-06T19:55:28.615Z,100.00
2023-03-06T19:57:56.452Z,100.00
2023-03-06T20:00:24.708Z,100.00
2023-03-06T20:02:52.566Z,100.00
2023-03-06T20:05:20.487Z,100.00
2023-03-06T20:07:48.308Z,100.00
2023-03-06T20:10:18.320Z,100.00
2023-03-06T20:12:46.523Z,100.00
2023-03-06T20:15:14.344Z,100.00
2023-03-06T20:17:42.137Z,100.00
2023-03-06T20:20:12.016Z,100.00
2023-03-06T20:22:39.897Z,100.00
2023-03-06T20:25:08.131Z,100.00
2023-03-06T20:27:37.527Z,100.00
2023-03-06T20:30:08.003Z,100.00
2023-03-06T20:32:38.430Z,100.00
2023-03-06T20:35:08.380Z,100.00
2023-03-06T20:37:36.174Z,100.00
2023-03-06T20:40:04.494Z,100.00
2023-03-06T20:42:32.297Z,100.00
2023-03-06T20:45:01.468Z,100.00
2023-03-06T20:47:29.254Z,100.00
2023-03-06T20:49:57.217Z,100.00
2023-03-06T20:52:27.542Z,100.00
2023-03-06T20:54:55.316Z,100.00
2023-03-06T20:57:23.099Z,100.00
2023-03-06T20:59:50.875Z,100.00
2023-03-06T21:02:20.034Z,100.00
2023-03-06T21:04:47.848Z,100.00
2023-03-06T21:07:16.912Z,100.00
2023-03-06T21:09:44.696Z,100.00
2023-03-06T21:12:12.473Z,100.00
2023-03-06T21:14:40.231Z,100.00
2023-03-06T21:17:07.989Z,100.00
2023-03-06T21:19:37.199Z,100.00
2023-03-06T21:22:05.027Z,100.00
2023-03-06T21:24:32.853Z,100.00
2023-03-06T21:27:00.631Z,100.00
2023-03-06T21:29:28.426Z,100.00
2023-03-06T21:31:56.179Z,100.00
2023-03-06T21:34:24.004Z,100.00
2023-03-06T21:36:53.167Z,100.00
2023-03-06T21:39:21.016Z,100.00
2023-03-06T21:41:48.831Z,100.00
2023-03-06T21:44:16.623Z,100.00
2023-03-06T21:46:44.374Z,100.00
2023-03-06T21:49:12.161Z,100.00
2023-03-06T21:51:39.998Z,100.00
2023-03-06T21:54:09.721Z,100.00
2023-03-06T21:56:37.569Z,100.00
2023-03-06T21:59:05.434Z,100.00
2023-03-06T22:01:33.840Z,100.00
2023-03-06T22:04:01.729Z,100.00
2023-03-06T22:06:31.233Z,100.00
2023-03-06T22:09:01.325Z,100.00
2023-03-06T22:11:34.197Z,100.00
2023-03-06T22:14:02.153Z,100.00
2023-03-06T22:16:30.111Z,100.00
2023-03-06T22:18:57.920Z,100.00
2023-03-06T22:21:26.013Z,100.00
2023-03-06T22:23:57.219Z,100.00
2023-03-06T22:26:25.184Z,100.00
2023-03-06T22:28:54.343Z,100.00
2023-03-06T22:31:24.785Z,100.00
2023-03-06T22:33:53.117Z,100.00
2023-03-06T22:36:21.740Z,100.00
2023-03-06T22:38:50.663Z,100.00
2023-03-06T22:41:20.090Z,100.00
2023-03-06T22:43:48.383Z,100.00
2023-03-06T22:46:18.868Z,100.00
2023-03-06T22:48:46.723Z,100.00
2023-03-06T22:51:16.380Z,100.00
2023-03-06T22:53:44.881Z,100.00
2023-03-06T22:56:14.635Z,100.00
2023-03-06T22:58:44.754Z,100.00
2023-03-06T23:01:15.238Z,100.00
2023-03-06T23:03:46.049Z,100.00
2023-03-06T23:06:16.451Z,100.00
2023-03-06T23:08:49.097Z,100.00
2023-03-06T23:11:19.474Z,100.00
2023-03-06T23:14:06.090Z,100.00
2023-03-06T23:16:52.843Z,100.00
2023-03-06T23:19:40.442Z,100.00
2023-03-06T23:22:26.750Z,100.00
2023-03-06T23:25:13.132Z,100.00
2023-03-06T23:27:41.079Z,100.00
2023-03-06T23:30:10.405Z,100.00
2023-03-06T23:32:38.223Z,100.00
2023-03-06T23:35:08.567Z,100.00
2023-03-06T23:37:36.339Z,100.00
2023-03-06T23:40:07.759Z,100.00
2023-03-06T23:42:35.371Z,100.00
2023-03-06T23:45:03.191Z,100.00
2023-03-06T23:47:32.923Z,100.00
2023-03-06T23:50:00.723Z,100.00
2023-03-06T23:52:29.875Z,100.00
2023-03-06T23:54:57.674Z,100.00
2023-03-06T23:57:25.472Z,100.00
2023-03-06T23:59:53.357Z,100.00
